createdAt,value
2019-04-07T00:00:40.979Z,99.90
2019-04-07T00:03:11.579Z,99.90
2019-04-07T00:05:42.439Z,99.90
2019-04-07T00:08:13.384Z,99.90
2019-04-07T00:10:43.730Z,99.90
2019-04-07T00:13:14.027Z,99.90
2019-04-07T00:15:44.314Z,99.90
2019-04-07T00:18:14.712Z,99.90
2019-04-07T00:20:44.943Z,99.90
2019-04-07T00:23:15.232Z,99.90
2019-04-07T00:25:45.564Z,99.90
2019-04-07T00:28:16.185Z,99.90
2019-04-07T00:30:46.513Z,99.90
2019-04-07T00:33:16.834Z,99.90
2019-04-07T00:35:47.108Z,99.90
2019-04-07T00:38:17.755Z,99.90
2019-04-07T00:40:49.300Z,99.90
2019-04-07T00:43:21.873Z,99.90
2019-04-07T00:45:52.493Z,99.90
2019-04-07T00:48:23.322Z,99.90
2019-04-07T00:50:53.983Z,99.90
2019-04-07T00:53:24.293Z,99.90
2019-04-07T00:55:55.016Z,99.90
2019-04-07T00:58:25.525Z,99.90
2019-04-07T01:00:56.349Z,99.90
2019-04-07T01:03:26.912Z,99.90
2019-04-07T01:05:57.847Z,99.90
2019-04-07T01:08:28.198Z,99.90
2019-04-07T01:10:58.606Z,99.90
2019-04-07T01:13:30.774Z,99.90
2019-04-07T01:16:01.374Z,99.90
2019-04-07T01:18:33.938Z,99.90
2019-04-07T01:21:04.807Z,99.90
2019-04-07T01:23:35.638Z,99.90
2019-04-07T01:26:06.514Z,99.90
2019-04-07T01:28:37.492Z,99.90
2019-04-07T01:31:07.794Z,99.90
2019-04-07T01:33:38.022Z,99.90
2019-04-07T01:36:08.337Z,99.90
2019-04-07T01:38:38.642Z,99.90
2019-04-07T01:41:35.581Z,99.90
2019-04-07T01:44:17.867Z,99.90
2019-04-07T01:50:09.380Z,99.90
2019-04-07T01:52:52.545Z,99.90
2019-04-07T01:55:50.892Z,99.90
2019-04-07T01:58:32.841Z,99.90
2019-04-07T02:01:21.159Z,99.90
2019-04-07T02:04:01.790Z,99.90
2019-04-07T02:06:50.196Z,99.90
2019-04-07T02:09:43.262Z,99.90
2019-04-07T02:12:28.216Z,99.90
2019-04-07T02:15:26.795Z,99.90
2019-04-07T02:18:25.065Z,99.90
2019-04-07T02:21:23.704Z,99.90
2019-04-07T02:24:08.241Z,99.90
2019-04-07T02:26:56.189Z,99.90
2019-04-07T02:29:52.066Z,99.90
2019-04-07T02:32:34.482Z,99.90
2019-04-07T02:35:43.218Z,99.90
2019-04-07T02:38:19.310Z,99.90
2019-04-07T02:41:22.597Z,99.90
2019-04-07T02:44:20.633Z,99.90
2019-04-07T02:47:04.343Z,99.90
2019-04-07T02:49:50.033Z,99.90
2019-04-07T02:52:43.263Z,99.90
2019-04-07T02:55:42.438Z,99.90
2019-04-07T02:58:22.807Z,99.90
2019-04-07T03:01:16.653Z,99.90
2019-04-07T03:04:05.927Z,99.90
2019-04-07T03:06:56.900Z,99.90
2019-04-07T03:09:43.993Z,99.90
2019-04-07T03:12:21.952Z,99.90
2019-04-07T03:15:05.632Z,99.90
2019-04-07T03:18:12.573Z,99.90
2019-04-07T03:21:01.067Z,99.90
2019-04-07T03:23:49.757Z,99.90
2019-04-07T03:26:44.455Z,99.90
2019-04-07T03:29:33.785Z,99.90
2019-04-07T03:32:40.586Z,99.90
2019-04-07T03:35:32.696Z,99.90
2019-04-07T03:38:39.313Z,99.90
2019-04-07T03:41:18.656Z,99.90
2019-04-07T03:44:14.315Z,99.90
2019-04-07T03:46:58.936Z,99.90
2019-04-07T03:49:50.892Z,99.90
2019-04-07T03:52:40.477Z,99.90
2019-04-07T03:55:32.663Z,99.90
2019-04-07T03:58:20.757Z,99.90
2019-04-07T04:01:33.980Z,99.90
2019-04-07T04:04:24.670Z,99.90
2019-04-07T04:06:58.404Z,99.90
2019-04-07T04:10:03.355Z,99.90
2019-04-07T04:12:41.786Z,99.90
2019-04-07T04:15:25.007Z,99.90
2019-04-07T04:17:55.388Z,99.90
2019-04-07T04:20:25.663Z,99.90
2019-04-07T04:22:56.014Z,99.90
2019-04-07T04:25:26.638Z,99.90
2019-04-07T04:27:57.742Z,99.90
2019-04-07T04:30:28.036Z,99.90
2019-04-07T04:32:58.432Z,99.90
2019-04-07T04:35:30.056Z,99.90
2019-04-07T04:38:00.417Z,99.90
2019-04-07T04:40:30.730Z,99.90
2019-04-07T04:43:01.490Z,99.90
2019-04-07T04:45:33.720Z,99.90
2019-04-07T04:48:04.470Z,99.90
2019-04-07T04:50:35.403Z,99.90
2019-04-07T04:53:06.171Z,99.90
2019-04-07T04:55:37.289Z,99.90
2019-04-07T04:58:09.546Z,99.90
2019-04-07T05:00:40.433Z,99.90
2019-04-07T05:03:11.615Z,99.90
2019-04-07T05:05:41.848Z,99.90
2019-04-07T05:08:12.901Z,99.90
2019-04-07T05:10:43.952Z,99.90
2019-04-07T05:13:26.019Z,99.90
2019-04-07T05:15:56.507Z,99.90
2019-04-07T05:18:26.920Z,99.90
2019-04-07T05:20:57.511Z,99.90
2019-04-07T05:23:28.494Z,99.90
2019-04-07T05:25:59.237Z,99.90
2019-04-07T05:28:32.079Z,99.90
2019-04-07T05:31:02.333Z,99.90
2019-04-07T05:33:32.747Z,99.90
2019-04-07T05:36:03.734Z,99.90
2019-04-07T05:38:34.532Z,99.90
2019-04-07T05:41:05.430Z,99.90
2019-04-07T05:43:35.872Z,99.90
2019-04-07T05:46:08.061Z,99.90
2019-04-07T05:48:38.280Z,99.90
2019-04-07T05:51:08.811Z,99.90
2019-04-07T05:53:39.128Z,99.90
2019-04-07T05:56:10.013Z,99.90
2019-04-07T05:58:42.661Z,99.90
2019-04-07T06:01:14.006Z,99.90
2019-04-07T06:03:44.577Z,99.90
2019-04-07T06:06:14.888Z,99.90
2019-04-07T06:08:46.982Z,99.90
2019-04-07T06:11:17.066Z,99.90
2019-04-07T06:13:47.505Z,99.90
2019-04-07T06:16:19.955Z,99.90
2019-04-07T06:18:51.126Z,99.90
2019-04-07T06:21:22.166Z,99.90
2019-04-07T06:23:55.373Z,99.90
2019-04-07T06:26:24.461Z,99.90
2019-04-07T06:28:58.433Z,99.90
2019-04-07T06:31:27.187Z,99.90
2019-04-07T06:33:58.944Z,99.90
2019-04-07T06:36:29.668Z,99.90
2019-04-07T06:39:00.298Z,99.90
2019-04-07T06:41:35.786Z,99.90
2019-04-07T06:44:12.794Z,99.90
2019-04-07T06:46:43.974Z,99.90
2019-04-07T06:49:29.469Z,99.90
2019-04-07T06:52:17.377Z,99.90
2019-04-07T06:55:05.495Z,99.90
2019-04-07T06:57:55.018Z,99.90
2019-04-07T07:00:53.619Z,99.90
2019-04-07T07:03:53.823Z,99.90
2019-04-07T07:06:56.891Z,99.90
2019-04-07T07:10:06.307Z,99.90
2019-04-07T07:13:00.738Z,99.90
2019-04-07T07:15:52.777Z,99.90
2019-04-07T07:18:35.743Z,99.90
2019-04-07T07:21:13.330Z,99.90
2019-04-07T07:23:48.317Z,99.90
2019-04-07T07:26:17.102Z,99.90
2019-04-07T07:28:47.618Z,99.90
2019-04-07T07:31:36.956Z,99.90
2019-04-07T07:34:09.336Z,99.90
2019-04-07T07:36:39.325Z,99.90
2019-04-07T07:39:12.463Z,99.90
2019-04-07T07:41:41.759Z,99.90
2019-04-07T07:44:11.986Z,99.90
2019-04-07T07:46:42.249Z,99.90
2019-04-07T07:49:14.780Z,99.90
2019-04-07T07:51:47.553Z,99.90
2019-04-07T07:54:17.342Z,99.90
2019-04-07T07:56:50.137Z,99.90
2019-04-07T07:59:20.148Z,99.90
2019-04-07T08:01:51.662Z,99.90
2019-04-07T08:04:26.418Z,99.90
2019-04-07T08:06:56.902Z,99.90
2019-04-07T08:09:28.292Z,99.90
2019-04-07T08:11:58.846Z,99.90
2019-04-07T08:14:29.375Z,99.90
2019-04-07T08:17:02.265Z,99.90
2019-04-07T08:19:31.866Z,99.90
2019-04-07T08:22:03.044Z,99.90
2019-04-07T08:24:33.382Z,99.90
2019-04-07T08:27:04.082Z,99.90
2019-04-07T08:29:37.191Z,99.90
2019-04-07T08:32:06.682Z,99.90
2019-04-07T08:34:37.312Z,99.90
2019-04-07T08:37:08.369Z,99.90
2019-04-07T08:39:38.800Z,99.90
2019-04-07T08:42:11.177Z,99.90
2019-04-07T08:44:41.929Z,99.90
2019-04-07T08:47:18.992Z,99.90
2019-04-07T08:49:44.461Z,99.90
2019-04-07T08:52:15.289Z,99.90
2019-04-07T08:54:48.883Z,99.90
2019-04-07T08:57:17.738Z,99.90
2019-04-07T08:59:48.126Z,99.90
2019-04-07T09:02:19.195Z,99.90
2019-04-07T09:04:52.320Z,99.90
2019-04-07T09:07:23.629Z,99.90
2019-04-07T09:09:54.460Z,99.90
2019-04-07T09:12:26.872Z,99.90
2019-04-07T09:14:57.016Z,99.90
2019-04-07T09:17:43.709Z,99.90
2019-04-07T09:20:17.971Z,99.90
2019-04-07T09:22:56.100Z,99.90
2019-04-07T09:25:57.305Z,99.90
2019-04-07T09:28:43.112Z,99.90
2019-04-07T09:31:22.085Z,99.90
2019-04-07T09:34:24.819Z,99.90
2019-04-07T09:37:45.708Z,99.90
2019-04-07T09:40:31.837Z,99.90
2019-04-07T09:43:21.358Z,99.90
2019-04-07T09:46:16.737Z,99.90
2019-04-07T09:49:13.581Z,99.90
2019-04-07T09:52:02.840Z,99.90
2019-04-07T09:54:54.630Z,99.90
2019-04-07T09:57:43.852Z,99.90
2019-04-07T10:00:22.991Z,99.90
2019-04-07T10:03:12.963Z,99.90
2019-04-07T10:06:03.638Z,99.90
2019-04-07T10:08:55.662Z,99.90
2019-04-07T10:11:35.073Z,99.90
2019-04-07T10:14:23.763Z,99.90
2019-04-07T10:17:09.458Z,99.90
2019-04-07T10:20:02.346Z,99.90
2019-04-07T10:23:10.801Z,99.50
2019-04-07T10:25:58.798Z,99.20
2019-04-07T10:28:55.983Z,99.50
2019-04-07T10:31:51.883Z,99.90
2019-04-07T10:34:32.151Z,98.70
2019-04-07T10:37:28.084Z,97.00
2019-04-07T10:40:24.367Z,99.00
2019-04-07T10:43:22.876Z,97.60
2019-04-07T10:46:02.572Z,96.50
2019-04-07T10:48:44.524Z,92.40
2019-04-07T10:51:35.426Z,91.70
2019-04-07T10:54:13.622Z,91.30
2019-04-07T10:56:55.420Z,80.40
2019-04-07T10:59:36.950Z,80.60
2019-04-07T11:02:32.260Z,81.10
2019-04-07T11:05:19.003Z,82.10
2019-04-07T11:08:14.970Z,79.80
2019-04-07T11:11:12.358Z,77.60
2019-04-07T11:14:00.953Z,74.00
2019-04-07T11:17:01.099Z,74.40
2019-04-07T11:19:51.315Z,75.90
2019-04-07T11:22:40.178Z,75.10
2019-04-07T11:25:31.620Z,75.30
2019-04-07T11:28:13.403Z,74.20
2019-04-07T11:31:02.203Z,71.90
2019-04-07T11:33:51.442Z,68.40
2019-04-07T11:36:38.568Z,69.30
2019-04-07T11:39:30.963Z,67.40
2019-04-07T11:42:35.574Z,63.10
2019-04-07T11:45:33.371Z,64.60
2019-04-07T11:48:29.467Z,65.70
2019-04-07T11:51:16.810Z,65.20
2019-04-07T11:54:13.020Z,63.70
2019-04-07T11:57:05.561Z,62.00
2019-04-07T11:59:57.682Z,63.20
2019-04-07T12:02:51.841Z,61.70
2019-04-07T12:05:49.591Z,63.30
2019-04-07T12:08:48.855Z,63.20
2019-04-07T12:11:44.146Z,60.20
2019-04-07T12:14:45.477Z,60.60
2019-04-07T12:17:41.463Z,61.60
2019-04-07T12:20:30.083Z,63.80
2019-04-07T12:23:08.229Z,63.60
2019-04-07T12:26:05.128Z,63.60
2019-04-07T12:28:49.833Z,60.30
2019-04-07T12:31:39.089Z,61.40
2019-04-07T12:34:34.661Z,62.80
2019-04-07T12:37:19.606Z,60.80
2019-04-07T12:40:09.185Z,59.70
2019-04-07T12:43:02.417Z,61.40
2019-04-07T12:45:48.165Z,61.80
2019-04-07T12:48:28.921Z,61.80
2019-04-07T12:51:04.463Z,61.90
2019-04-07T12:53:53.748Z,61.70
2019-04-07T12:56:53.215Z,59.60
2019-04-07T12:59:51.782Z,61.20
2019-04-07T13:02:54.366Z,60.80
2019-04-07T13:05:52.964Z,59.70
2019-04-07T13:08:49.075Z,62.10
2019-04-07T13:11:37.290Z,61.20
2019-04-07T13:14:16.785Z,60.50
2019-04-07T13:17:06.050Z,60.10
2019-04-07T13:19:48.007Z,60.10
2019-04-07T13:22:39.507Z,62.50
2019-04-07T13:25:30.234Z,62.30
2019-04-07T13:28:29.182Z,60.70
2019-04-07T13:31:11.332Z,60.30
2019-04-07T13:34:12.915Z,61.40
2019-04-07T13:37:05.134Z,59.90
2019-04-07T13:39:49.846Z,61.50
2019-04-07T13:42:42.690Z,61.90
2019-04-07T13:45:31.218Z,60.60
2019-04-07T13:48:18.433Z,61.10
2019-04-07T13:51:11.558Z,61.90
2019-04-07T13:54:02.026Z,61.40
2019-04-07T13:56:52.209Z,61.90
2019-04-07T13:59:44.055Z,62.80
2019-04-07T14:02:31.583Z,62.40
2019-04-07T14:05:15.504Z,62.40
2019-04-07T14:08:07.071Z,61.30
2019-04-07T14:10:45.059Z,61.90
2019-04-07T14:13:35.613Z,60.70
2019-04-07T14:16:41.275Z,61.10
2019-04-07T14:19:21.067Z,61.80
2019-04-07T14:22:02.112Z,60.50
2019-04-07T14:24:48.243Z,61.20
2019-04-07T14:27:43.645Z,63.70
2019-04-07T14:30:36.562Z,62.90
2019-04-07T14:33:25.203Z,63.80
2019-04-07T14:36:13.767Z,64.60
2019-04-07T14:38:49.289Z,65.10
2019-04-07T14:41:40.167Z,65.10
2019-04-07T14:44:35.842Z,63.80
2019-04-07T14:47:28.432Z,64.50
2019-04-07T14:50:13.270Z,63.80
2019-04-07T14:53:03.175Z,64.50
2019-04-07T14:56:04.438Z,63.90
2019-04-07T14:58:53.390Z,63.40
2019-04-07T15:01:34.797Z,64.10
2019-04-07T15:04:06.199Z,64.80
2019-04-07T15:06:36.730Z,63.40
2019-04-07T15:09:26.217Z,63.80
2019-04-07T15:12:15.943Z,65.70
2019-04-07T15:14:39.371Z,67.00
2019-04-07T15:17:09.682Z,66.90
2019-04-07T15:19:41.816Z,67.60
2019-04-07T15:22:13.089Z,67.70
2019-04-07T15:24:44.300Z,67.40
2019-04-07T15:27:15.553Z,66.60
2019-04-07T15:29:46.988Z,64.20
2019-04-07T15:32:21.169Z,66.10
2019-04-07T15:34:51.399Z,68.00
2019-04-07T15:37:24.129Z,66.10
2019-04-07T15:39:54.061Z,66.30
2019-04-07T15:42:35.120Z,66.10
2019-04-07T15:44:57.233Z,66.10
2019-04-07T15:47:27.716Z,66.00
2019-04-07T15:49:59.469Z,64.70
2019-04-07T15:52:31.634Z,65.80
2019-04-07T15:55:01.996Z,65.80
2019-04-07T15:57:33.882Z,67.70
2019-04-07T16:00:05.496Z,67.50
2019-04-07T16:02:40.920Z,66.30
2019-04-07T16:05:09.411Z,65.00
2019-04-07T16:07:40.678Z,64.70
2019-04-07T16:10:11.470Z,65.10
2019-04-07T16:12:47.424Z,64.50
2019-04-07T16:15:16.626Z,63.10
2019-04-07T16:17:47.586Z,64.80
2019-04-07T16:20:24.699Z,63.80
2019-04-07T16:22:54.310Z,66.40
2019-04-07T16:25:27.557Z,63.60
2019-04-07T16:27:56.920Z,65.40
2019-04-07T16:30:27.357Z,65.20
2019-04-07T16:33:01.845Z,65.80
2019-04-07T16:35:29.903Z,65.00
2019-04-07T16:38:01.536Z,66.20
2019-04-07T16:40:32.353Z,66.40
2019-04-07T16:43:10.959Z,65.70
2019-04-07T16:45:35.603Z,66.50
2019-04-07T16:48:06.738Z,66.40
2019-04-07T16:50:38.176Z,67.30
2019-04-07T16:53:09.209Z,67.40
2019-04-07T16:55:41.603Z,69.20
2019-04-07T16:58:12.341Z,70.00
2019-04-07T17:00:42.604Z,75.20
2019-04-07T17:03:13.195Z,72.30
2019-04-07T17:05:45.135Z,73.70
2019-04-07T17:08:19.325Z,75.30
2019-04-07T17:10:48.532Z,74.40
2019-04-07T17:13:28.041Z,75.80
2019-04-07T17:15:52.651Z,78.40
2019-04-07T17:18:43.620Z,80.70
2019-04-07T17:21:15.912Z,85.50
2019-04-07T17:23:47.508Z,90.10
2019-04-07T17:26:18.181Z,92.90
2019-04-07T17:28:49.926Z,92.90
2019-04-07T17:31:33.487Z,96.70
2019-04-07T17:34:07.381Z,96.20
2019-04-07T17:36:36.474Z,98.20
2019-04-07T17:39:30.276Z,96.50
2019-04-07T17:42:01.524Z,97.80
2019-04-07T17:45:09.695Z,99.10
2019-04-07T17:48:00.332Z,99.70
2019-04-07T17:50:55.313Z,99.90
2019-04-07T17:53:47.742Z,99.90
2019-04-07T17:56:36.880Z,99.90
2019-04-07T17:59:26.290Z,99.90
2019-04-07T18:02:16.131Z,99.90
2019-04-07T18:05:08.461Z,99.90
2019-04-07T18:08:19.907Z,99.90
2019-04-07T18:11:09.864Z,99.90
2019-04-07T18:14:02.248Z,99.90
2019-04-07T18:16:50.390Z,99.90
2019-04-07T18:19:39.713Z,99.90
2019-04-07T18:22:28.403Z,99.90
2019-04-07T18:25:17.870Z,99.90
2019-04-07T18:28:06.739Z,99.90
2019-04-07T18:30:56.294Z,99.90
2019-04-07T18:33:55.853Z,99.90
2019-04-07T18:36:44.049Z,99.90
2019-04-07T18:39:52.388Z,99.90
2019-04-07T18:42:44.427Z,99.90
2019-04-07T18:45:32.442Z,99.90
2019-04-07T18:48:22.750Z,99.90
2019-04-07T18:51:19.536Z,99.90
2019-04-07T18:54:33.883Z,99.90
2019-04-07T18:57:43.895Z,99.90
2019-04-07T19:00:52.160Z,99.90
2019-04-07T19:03:51.952Z,99.90
2019-04-07T19:06:27.544Z,99.90
2019-04-07T19:09:01.992Z,99.90
2019-04-07T19:12:07.557Z,99.90
2019-04-07T19:14:57.108Z,99.90
2019-04-07T19:17:56.725Z,99.90
2019-04-07T19:20:47.854Z,99.90
2019-04-07T19:23:30.313Z,99.90
2019-04-07T19:26:18.662Z,99.90
2019-04-07T19:29:04.325Z,99.90
2019-04-07T19:31:55.423Z,99.90
2019-04-07T19:34:50.985Z,99.90
2019-04-07T19:37:59.046Z,99.90
2019-04-07T19:40:59.318Z,99.90
2019-04-07T19:43:45.819Z,99.90
2019-04-07T19:46:35.012Z,99.90
2019-04-07T19:49:23.002Z,99.90
2019-04-07T19:52:10.768Z,99.90
2019-04-07T19:55:15.519Z,99.90
2019-04-07T19:58:09.780Z,99.90
2019-04-07T20:01:03.318Z,99.90
2019-04-07T20:03:52.732Z,99.90
2019-04-07T20:06:42.681Z,99.90
2019-04-07T20:09:32.128Z,99.90
2019-04-07T20:12:17.347Z,99.90
2019-04-07T20:15:17.853Z,99.90
2019-04-07T20:17:56.631Z,99.90
2019-04-07T20:20:48.953Z,99.90
2019-04-07T20:23:36.827Z,99.90
2019-04-07T20:26:28.704Z,99.90
2019-04-07T20:29:17.213Z,99.90
2019-04-07T20:32:14.125Z,99.90
2019-04-07T20:35:06.298Z,99.90
2019-04-07T20:37:47.668Z,99.90
2019-04-07T20:40:39.655Z,99.90
2019-04-07T20:43:35.119Z,99.90
2019-04-07T20:46:30.290Z,99.90
2019-04-07T20:49:20.470Z,99.90
2019-04-07T20:52:13.289Z,99.90
2019-04-07T20:55:13.847Z,99.90
2019-04-07T20:58:17.583Z,99.90
2019-04-07T21:01:22.190Z,99.90
2019-04-07T21:04:19.897Z,99.90
2019-04-07T21:07:12.331Z,99.90
2019-04-07T21:10:09.782Z,99.90
2019-04-07T21:12:56.964Z,99.90
2019-04-07T21:15:44.118Z,99.90
2019-04-07T21:18:32.747Z,99.90
2019-04-07T21:21:22.126Z,99.90
2019-04-07T21:24:01.635Z,99.90
2019-04-07T21:26:57.984Z,99.90
2019-04-07T21:29:48.071Z,99.90
2019-04-07T21:32:40.366Z,99.90
2019-04-07T21:35:45.905Z,99.90
2019-04-07T21:38:31.285Z,99.90
2019-04-07T21:41:25.190Z,99.90
2019-04-07T21:44:13.493Z,99.90
2019-04-07T21:47:12.327Z,99.90
2019-04-07T21:50:09.960Z,99.90
2019-04-07T21:53:06.554Z,99.90
2019-04-07T21:56:04.626Z,99.90
2019-04-07T21:59:01.097Z,99.90
2019-04-07T22:01:53.439Z,99.90
2019-04-07T22:04:38.170Z,99.90
2019-04-07T22:07:16.073Z,99.90
2019-04-07T22:09:52.674Z,99.90
2019-04-07T22:12:28.013Z,99.90
2019-04-07T22:14:55.420Z,99.90
2019-04-07T22:17:25.771Z,99.90
2019-04-07T22:19:56.438Z,99.90
2019-04-07T22:22:27.645Z,99.90
2019-04-07T22:25:01.204Z,99.90
2019-04-07T22:27:32.580Z,99.90
2019-04-07T22:30:05.931Z,99.90
2019-04-07T22:32:38.472Z,99.90
2019-04-07T22:35:08.959Z,99.90
2019-04-07T22:37:39.930Z,99.90
2019-04-07T22:40:15.558Z,99.90
2019-04-07T22:42:47.554Z,99.90
2019-04-07T22:45:19.111Z,99.90
2019-04-07T22:47:52.402Z,99.90
2019-04-07T22:50:25.294Z,99.90
2019-04-07T22:52:55.990Z,99.90
2019-04-07T22:55:27.443Z,99.90
2019-04-07T22:57:57.922Z,99.90
2019-04-07T23:00:29.686Z,99.90
2019-04-07T23:03:00.028Z,99.90
2019-04-07T23:05:30.244Z,99.90
2019-04-07T23:08:00.522Z,99.90
2019-04-07T23:10:31.597Z,99.90
2019-04-07T23:13:08.729Z,99.90
2019-04-07T23:15:44.349Z,99.90
2019-04-07T23:18:11.597Z,99.90
2019-04-07T23:20:42.052Z,99.90
2019-04-07T23:23:12.442Z,99.90
2019-04-07T23:25:43.981Z,99.90
2019-04-07T23:28:14.598Z,99.90
2019-04-07T23:30:45.143Z,99.90
2019-04-07T23:33:18.336Z,99.90
2019-04-07T23:35:49.015Z,99.90
2019-04-07T23:38:19.787Z,99.90
2019-04-07T23:40:50.215Z,99.90
2019-04-07T23:43:21.541Z,99.90
2019-04-07T23:45:52.141Z,99.90
2019-04-07T23:48:22.339Z,99.90
2019-04-07T23:50:52.599Z,99.90
2019-04-07T23:53:59.095Z,99.90
2019-04-07T23:56:31.503Z,99.90
2019-04-07T23:59:02.582Z,99.90
